Time;durP1;ratioP1;P1;durP2;ratioP2;P2;SDS_P1;SDS_P2;PMS_P1;PMS_P2;Temp;Humidity;BMP_temperature;BMP_pressure;BME280_temperature;BME280_humidity;BME280_pressure;Samples;Min_cycle;Max_cycle;Signal;HPM_P1;HPM_P2
2021/08/17 00:01:51;;;;;;;5.53;4.07;;;;;;;14.54;94.87;98907.56;4969419;28;103773;-73
2021/08/17 00:04:19;;;;;;;4.97;4.20;;;;;;;14.58;95.56;98898.34;4962004;28;103104;-74
2021/08/17 00:06:48;;;;;;;4.10;3.70;;;;;;;14.31;94.71;98904.19;4975547;28;107651;-74
2021/08/17 00:09:16;;;;;;;4.60;4.10;;;;;;;14.41;94.40;98901.59;4968624;28;104138;-74
2021/08/17 00:11:44;;;;;;;6.20;4.17;;;;;;;14.37;94.34;98916.97;4978704;28;104107;-73
2021/08/17 00:14:13;;;;;;;5.87;4.20;;;;;;;14.22;94.30;98907.59;4977416;28;103376;-74
2021/08/17 00:16:42;;;;;;;4.83;4.30;;;;;;;14.36;94.03;98907.31;4970923;28;102926;-73
2021/08/17 00:19:10;;;;;;;4.20;3.80;;;;;;;14.46;93.44;98902.91;4969923;28;106725;-75
2021/08/17 00:21:38;;;;;;;4.50;3.80;;;;;;;14.49;93.20;98899.97;4971254;28;103381;-75
2021/08/17 00:24:06;;;;;;;4.13;3.60;;;;;;;14.47;93.31;98904.59;4977418;28;103644;-74
2021/08/17 00:26:37;;;;;;;7.70;5.10;;;;;;;14.25;92.95;98915.31;4968055;28;104495;-75
2021/08/17 00:29:05;;;;;;;5.17;4.07;;;;;;;14.39;93.41;98908.88;4964595;28;104674;-75
2021/08/17 00:31:33;;;;;;;6.43;4.90;;;;;;;14.23;93.48;98919.06;4967183;28;103774;-76
2021/08/17 00:34:02;;;;;;;5.80;4.30;;;;;;;14.22;94.08;98920.88;4977352;28;103005;-74
2021/08/17 00:36:31;;;;;;;5.30;4.50;;;;;;;14.19;94.19;98929.13;4963885;28;104568;-74
2021/08/17 00:39:01;;;;;;;3.73;3.37;;;;;;;14.34;94.24;98925.19;4965951;28;105568;-74
2021/08/17 00:41:29;;;;;;;5.53;4.10;;;;;;;14.39;94.84;98923.00;4968874;28;104157;-74
2021/08/17 00:43:57;;;;;;;4.20;3.70;;;;;;;14.46;94.61;98926.81;4962929;28;102637;-74
2021/08/17 00:46:25;;;;;;;4.90;4.40;;;;;;;14.43;95.03;98921.75;4967406;28;104646;-73
2021/08/17 00:48:53;;;;;;;5.83;5.23;;;;;;;14.39;94.96;98932.78;4970730;28;106418;-74
2021/08/17 00:51:23;;;;;;;7.97;5.53;;;;;;;14.36;94.42;98931.25;4972599;28;104370;-74
2021/08/17 00:53:52;;;;;;;5.87;5.23;;;;;;;14.35;94.70;98936.66;4971022;28;104094;-75
2021/08/17 00:56:20;;;;;;;6.73;5.57;;;;;;;14.25;94.66;98928.59;4963191;28;104588;-74
2021/08/17 00:58:48;;;;;;;7.03;6.30;;;;;;;14.13;95.90;98932.28;4964729;28;104750;-74
2021/08/17 01:01:16;;;;;;;6.40;5.30;;;;;;;14.25;95.29;98933.91;4967257;28;106020;-73
2021/08/17 01:03:44;;;;;;;6.07;5.47;;;;;;;14.17;94.61;98939.03;4968462;28;105402;-75
2021/08/17 01:06:12;;;;;;;6.37;4.77;;;;;;;14.16;92.55;98944.47;4964177;28;105507;-73
2021/08/17 01:08:41;;;;;;;4.83;4.33;;;;;;;14.15;92.21;98940.09;4965527;28;106161;-73
2021/08/17 01:11:09;;;;;;;7.40;5.97;;;;;;;13.93;92.39;98939.22;4979406;28;104625;-73
2021/08/17 01:13:37;;;;;;;5.97;5.00;;;;;;;13.84;92.36;98944.44;4965900;28;102794;-74
2021/08/17 01:16:06;;;;;;;6.07;5.30;;;;;;;13.69;92.17;98943.91;4975511;28;103815;-74
2021/08/17 01:18:34;;;;;;;6.03;4.93;;;;;;;13.85;92.51;98944.34;4973551;28;105194;-74
2021/08/17 01:21:07;;;;;;;6.03;4.43;;;;;;;13.81;91.80;98944.72;4972051;28;104221;-73
2021/08/17 01:23:35;;;;;;;6.70;4.93;;;;;;;13.71;92.01;98949.06;4962016;28;102901;-75
2021/08/17 01:26:06;;;;;;;5.57;4.97;;;;;;;13.53;92.80;98956.69;4964746;28;104587;-73
2021/08/17 01:28:34;;;;;;;6.07;5.20;;;;;;;13.65;92.24;98960.19;4963063;28;104241;-74
2021/08/17 01:31:04;;;;;;;6.63;5.27;;;;;;;13.51;91.77;98968.41;4964117;28;104092;-74
2021/08/17 01:33:33;;;;;;;7.17;5.47;;;;;;;13.50;92.13;98980.84;4962683;28;103226;-74
2021/08/17 01:36:01;;;;;;;6.37;4.93;;;;;;;13.51;90.75;98985.19;4959055;28;104870;-74
2021/08/17 01:38:30;;;;;;;6.63;5.60;;;;;;;13.49;91.94;98997.75;4965143;28;104187;-75
2021/08/17 01:40:58;;;;;;;9.53;5.13;;;;;;;13.46;90.78;98995.34;4966799;28;104104;-75
2021/08/17 01:43:27;;;;;;;6.73;5.57;;;;;;;13.45;90.58;99001.59;4966452;28;104280;-74
2021/08/17 01:45:56;;;;;;;7.90;5.27;;;;;;;13.42;91.79;99004.50;4967864;28;108351;-75
2021/08/17 01:48:25;;;;;;;6.80;5.10;;;;;;;13.32;91.46;99004.38;4962001;28;106197;-75
2021/08/17 01:50:54;;;;;;;8.57;5.50;;;;;;;13.40;91.51;99008.22;4969731;28;104004;-74
2021/08/17 01:53:23;;;;;;;8.20;4.73;;;;;;;13.46;91.32;99011.25;4963606;28;102577;-73
2021/08/17 01:55:52;;;;;;;8.23;5.03;;;;;;;13.39;91.86;99011.88;4972132;28;105016;-73
2021/08/17 01:58:21;;;;;;;5.23;4.50;;;;;;;13.41;91.17;99018.75;4963403;28;107372;-74
2021/08/17 02:00:50;;;;;;;4.90;4.40;;;;;;;13.27;92.04;99014.53;4971171;28;103782;-74
2021/08/17 02:03:18;;;;;;;6.57;5.33;;;;;;;13.29;92.82;99011.72;4971251;28;102719;-74
2021/08/17 02:05:49;;;;;;;6.23;5.20;;;;;;;13.35;92.08;99009.47;4974545;28;104563;-74
2021/08/17 02:08:16;;;;;;;7.70;5.20;;;;;;;13.21;92.35;99004.38;4978446;28;105609;-74
2021/08/17 02:10:44;;;;;;;7.27;5.67;;;;;;;13.19;92.34;99006.28;4978779;28;103907;-73
2021/08/17 02:13:12;;;;;;;5.50;4.77;;;;;;;13.13;93.01;99012.09;4971420;28;103401;-74
2021/08/17 02:15:40;;;;;;;5.47;4.40;;;;;;;13.20;93.13;99013.31;4964992;28;104471;-74
2021/08/17 02:18:09;;;;;;;5.70;4.60;;;;;;;13.22;92.81;99014.00;4958892;28;104905;-74
2021/08/17 02:20:37;;;;;;;4.77;4.23;;;;;;;13.20;93.19;99013.31;4959826;28;103931;-74
2021/08/17 02:23:06;;;;;;;4.03;3.40;;;;;;;13.09;93.50;99017.75;4961270;28;103056;-73
2021/08/17 02:25:34;;;;;;;4.70;4.23;;;;;;;13.00;93.40;99016.63;4959278;28;104822;-74
2021/08/17 02:28:02;;;;;;;4.63;4.10;;;;;;;13.02;94.03;99017.38;4963600;28;104387;-74
2021/08/17 02:30:30;;;;;;;4.80;4.10;;;;;;;13.02;93.72;99029.78;4973764;28;105629;-74
2021/08/17 02:32:58;;;;;;;7.60;4.60;;;;;;;13.02;93.42;99027.97;4963028;28;103261;-74
2021/08/17 02:35:27;;;;;;;6.27;4.93;;;;;;;12.98;93.61;99038.91;4959559;28;104754;-74
2021/08/17 02:37:55;;;;;;;6.93;4.80;;;;;;;13.08;93.34;99037.28;4963930;28;104481;-73
2021/08/17 02:40:23;;;;;;;4.47;3.50;;;;;;;13.11;93.05;99039.69;4965226;28;104598;-74
2021/08/17 02:42:51;;;;;;;3.67;3.37;;;;;;;13.08;92.82;99035.47;4961926;28;103095;-73
2021/08/17 02:45:19;;;;;;;5.83;4.50;;;;;;;13.06;93.14;99037.38;4958970;28;104868;-74
2021/08/17 02:47:47;;;;;;;6.10;4.17;;;;;;;13.08;93.10;99037.28;4970612;28;104668;-74
2021/08/17 02:50:16;;;;;;;4.50;4.10;;;;;;;13.01;92.76;99042.19;4969956;28;104618;-74
2021/08/17 02:52:45;;;;;;;4.67;3.53;;;;;;;13.03;93.20;99042.91;4962470;28;102688;-74
2021/08/17 02:55:13;;;;;;;4.40;3.97;;;;;;;12.91;93.33;99043.88;4961497;28;105581;-74
2021/08/17 02:57:48;;;;;;;4.80;4.07;;;;;;;12.83;94.25;99046.22;4971925;28;104727;-75
2021/08/17 03:00:17;;;;;;;5.67;4.80;;;;;;;12.82;94.35;99049.84;4963502;28;103877;-74
2021/08/17 03:02:45;;;;;;;5.00;3.93;;;;;;;12.76;94.77;99050.31;4966279;28;103389;-74
2021/08/17 03:05:15;;;;;;;5.70;4.43;;;;;;;12.71;93.93;99048.03;4974223;28;104321;-74
2021/08/17 03:07:55;;;;;;;5.17;4.17;;;;;;;12.71;94.26;99049.81;4962861;28;105939;-74
2021/08/17 03:10:24;;;;;;;5.27;4.27;;;;;;;12.58;93.96;99049.03;4963391;28;105562;-74
2021/08/17 03:12:52;;;;;;;5.33;4.40;;;;;;;12.57;94.34;99052.66;4964825;28;103794;-74
2021/08/17 03:15:21;;;;;;;4.90;3.80;;;;;;;12.65;94.94;99052.94;4964466;28;104757;-74
2021/08/17 03:17:49;;;;;;;5.80;4.70;;;;;;;12.66;94.34;99055.47;4969447;28;104524;-74
2021/08/17 03:20:19;;;;;;;4.77;3.80;;;;;;;12.72;92.88;99048.84;4966450;28;104501;-73
2021/08/17 03:22:47;;;;;;;5.20;4.30;;;;;;;12.63;93.38;99049.56;4966350;28;104013;-76
2021/08/17 03:25:20;;;;;;;5.50;4.47;;;;;;;12.60;92.94;99049.78;4973913;28;106893;-77
2021/08/17 03:27:49;;;;;;;5.80;4.40;;;;;;;12.52;93.42;99041.56;4963093;28;104431;-77
2021/08/17 03:30:20;;;;;;;6.40;4.67;;;;;;;12.43;94.06;99047.56;4960989;28;104289;-77
2021/08/17 03:32:48;;;;;;;4.97;4.20;;;;;;;12.40;94.43;99047.78;4964795;28;103444;-77
2021/08/17 03:35:17;;;;;;;3.93;3.40;;;;;;;12.47;94.31;99049.00;4977136;28;105040;-74
2021/08/17 03:37:45;;;;;;;4.03;3.47;;;;;;;12.48;93.81;99050.69;4965031;28;105839;-81
2021/08/17 03:40:18;;;;;;;4.27;3.40;;;;;;;12.53;93.78;99049.41;4972445;28;103028;-77
2021/08/17 03:42:48;;;;;;;7.70;4.70;;;;;;;12.50;93.41;99046.97;4970843;28;103210;-77
2021/08/17 03:45:18;;;;;;;5.23;3.87;;;;;;;12.45;93.98;99046.47;4972813;28;104939;-81
2021/08/17 03:47:45;;;;;;;7.30;4.17;;;;;;;12.49;94.35;99057.69;4963727;28;104794;-76
2021/08/17 03:50:15;;;;;;;4.93;4.43;;;;;;;12.27;94.13;99052.31;4967696;28;104354;-84
2021/08/17 03:52:44;;;;;;;5.23;4.43;;;;;;;12.25;94.79;99048.91;4975012;28;103468;-78
2021/08/17 03:55:13;;;;;;;5.07;4.57;;;;;;;12.31;94.59;99043.16;4967275;28;105009;-83
2021/08/17 03:57:41;;;;;;;6.03;3.30;;;;;;;12.27;94.80;99049.66;4974963;28;105879;-83
2021/08/17 04:00:13;;;;;;;4.87;3.43;;;;;;;12.26;94.97;99050.59;4973115;28;105675;-84
2021/08/17 04:02:42;;;;;;;4.07;2.90;;;;;;;12.28;95.14;99049.53;4973525;28;103050;-80
2021/08/17 04:05:15;;;;;;;3.57;3.27;;;;;;;12.26;94.95;99051.44;4971478;28;105891;-85
2021/08/17 04:07:43;;;;;;;7.17;4.20;;;;;;;12.18;95.07;99057.28;4967469;28;105435;-83
2021/08/17 04:10:11;;;;;;;6.37;5.03;;;;;;;11.89;94.30;99068.31;4969876;28;103737;-83
2021/08/17 04:12:39;;;;;;;7.23;4.03;;;;;;;11.97;95.74;99068.59;4964680;28;102990;-82
2021/08/17 04:15:08;;;;;;;5.77;4.30;;;;;;;12.00;94.96;99081.63;4970031;28;104720;-83
2021/08/17 04:17:39;;;;;;;5.03;3.60;;;;;;;12.09;94.94;99084.47;4963592;28;104662;-79
2021/08/17 04:20:09;;;;;;;4.17;3.77;;;;;;;12.13;94.69;99099.16;4964538;28;104356;-84
2021/08/17 04:22:37;;;;;;;5.23;3.47;;;;;;;12.14;94.30;99086.78;4963985;28;103332;-81
2021/08/17 04:25:06;;;;;;;4.20;3.37;;;;;;;12.13;94.34;99088.56;4973851;28;104542;-79
2021/08/17 04:27:34;;;;;;;6.43;3.47;;;;;;;12.14;94.21;99087.63;4982333;28;105420;-81
2021/08/17 04:30:04;;;;;;;4.03;3.63;;;;;;;12.20;94.49;99094.28;4983036;28;103425;-89
2021/08/17 04:32:32;;;;;;;4.73;4.10;;;;;;;12.13;93.92;99087.72;4969221;28;103009;-88
2021/08/17 04:35:01;;;;;;;5.60;3.40;;;;;;;12.08;94.74;99089.84;4971254;28;103811;-92
2021/08/17 04:37:29;;;;;;;5.00;3.87;;;;;;;12.08;94.51;99090.72;4970310;28;105311;-92
2021/08/17 04:39:57;;;;;;;5.03;4.20;;;;;;;12.05;94.16;99090.94;4971151;28;104778;-92
2021/08/17 04:42:25;;;;;;;3.87;3.43;;;;;;;12.09;94.20;99095.06;4969356;28;103144;-91
2021/08/17 04:44:53;;;;;;;4.60;3.57;;;;;;;12.12;94.39;99099.28;4976567;28;105704;-87
2021/08/17 04:47:21;;;;;;;5.67;4.07;;;;;;;12.18;94.21;99102.31;4977042;28;104764;-90
2021/08/17 04:49:49;;;;;;;4.73;4.07;;;;;;;12.16;93.55;99104.25;4976661;28;103872;-91
2021/08/17 04:52:19;;;;;;;3.93;3.53;;;;;;;12.24;93.63;99110.81;4969464;28;102971;-93
2021/08/17 04:54:46;;;;;;;5.50;4.20;;;;;;;12.16;92.79;99109.53;4978037;28;104299;-91
2021/08/17 04:57:14;;;;;;;5.83;4.57;;;;;;;12.18;93.20;99107.63;4975656;28;104623;-88
2021/08/17 04:59:42;;;;;;;4.37;3.00;;;;;;;12.22;93.09;99113.53;4974425;28;106357;-89
2021/08/17 05:02:12;;;;;;;3.70;3.30;;;;;;;12.26;93.14;99108.88;4970784;28;103287;-84
2021/08/17 05:04:40;;;;;;;5.37;3.70;;;;;;;12.25;93.41;99117.75;4977714;28;104515;-90
2021/08/17 05:07:08;;;;;;;4.57;3.83;;;;;;;12.28;93.48;99123.69;4972509;28;103771;-92
2021/08/17 05:09:38;;;;;;;4.97;3.70;;;;;;;12.27;93.84;99118.53;4971251;28;105101;-86
2021/08/17 05:12:06;;;;;;;7.00;3.83;;;;;;;12.28;93.24;99118.41;4974731;28;103081;-91
2021/08/17 05:14:39;;;;;;;4.83;4.13;;;;;;;12.28;93.46;99125.50;4967960;28;104618;-90
2021/08/17 05:17:07;;;;;;;4.20;3.80;;;;;;;12.31;93.23;99123.47;4972429;28;103887;-90
2021/08/17 05:19:35;;;;;;;5.67;4.40;;;;;;;12.39;93.29;99120.25;4967752;28;103071;-84
2021/08/17 05:22:03;;;;;;;4.17;3.20;;;;;;;12.43;92.79;99117.28;4967516;28;105991;-88
2021/08/17 05:24:31;;;;;;;3.53;3.20;;;;;;;12.34;93.62;99120.59;4973593;28;105345;-91
2021/08/17 05:27:00;;;;;;;7.40;4.20;;;;;;;12.47;93.05;99124.03;4971839;28;105425;-88
2021/08/17 05:29:29;;;;;;;5.13;3.93;;;;;;;12.50;93.02;99125.63;4975552;28;104203;-90
2021/08/17 05:31:57;;;;;;;5.57;3.90;;;;;;;12.58;92.93;99120.59;4969327;28;102676;-87
2021/08/17 05:34:25;;;;;;;4.67;4.20;;;;;;;12.62;93.45;99119.44;4967369;28;105024;-89
2021/08/17 05:36:53;;;;;;;5.83;4.30;;;;;;;12.68;93.31;99116.31;4968886;28;106150;-89
2021/08/17 05:39:21;;;;;;;6.13;3.87;;;;;;;12.72;93.51;99112.47;4976448;28;104861;-86
2021/08/17 05:41:49;;;;;;;5.63;4.50;;;;;;;12.83;92.81;99109.88;4976415;28;103365;-85
2021/08/17 05:44:18;;;;;;;5.83;4.67;;;;;;;12.91;92.23;99112.81;4974764;28;104810;-89
2021/08/17 05:46:47;;;;;;;6.30;4.40;;;;;;;12.98;92.27;99114.03;4973593;28;104890;-89
2021/08/17 05:49:14;;;;;;;4.43;4.03;;;;;;;13.07;91.93;99120.44;4978589;28;103993;-83
2021/08/17 05:51:42;;;;;;;3.80;3.37;;;;;;;13.16;91.84;99117.97;4973794;28;103194;-86
2021/08/17 05:54:10;;;;;;;4.20;3.80;;;;;;;13.18;92.31;99116.06;4973188;28;106795;-91
2021/08/17 05:56:38;;;;;;;5.83;3.77;;;;;;;13.25;91.75;99113.75;4974668;28;105006;-87
2021/08/17 05:59:06;;;;;;;5.17;4.43;;;;;;;13.26;91.71;99112.81;4974801;28;103401;-90
2021/08/17 06:01:35;;;;;;;4.57;4.00;;;;;;;13.40;91.98;99115.22;4964133;28;103420;-91
2021/08/17 06:04:04;;;;;;;5.43;3.90;;;;;;;13.53;91.45;99115.16;4978976;28;103842;-82
2021/08/17 06:06:32;;;;;;;7.23;4.90;;;;;;;13.30;90.66;99120.41;4990243;28;104022;-87
2021/08/17 06:08:59;;;;;;;6.50;4.27;;;;;;;13.46;88.56;99120.06;4977737;28;103158;-89
2021/08/17 06:11:27;;;;;;;4.63;3.47;;;;;;;13.73;88.63;99119.72;4974125;28;103435;-90
2021/08/17 06:13:55;;;;;;;7.70;4.20;;;;;;;13.63;87.97;99122.28;4976809;28;104776;-84
2021/08/17 06:16:23;;;;;;;6.70;5.10;;;;;;;13.60;87.81;99125.16;4974730;28;104447;-88
2021/08/17 06:18:54;;;;;;;5.33;4.30;;;;;;;13.75;88.05;99131.09;4974444;28;103867;-87
2021/08/17 06:21:22;;;;;;;4.87;4.40;;;;;;;14.03;87.19;99133.25;4967484;28;102911;-88
2021/08/17 06:23:50;;;;;;;5.40;4.23;;;;;;;14.18;86.64;99133.81;4977672;28;104423;-89
2021/08/17 06:26:18;;;;;;;4.83;4.00;;;;;;;14.21;85.95;99126.47;4971559;28;104337;-88
2021/08/17 06:28:46;;;;;;;6.83;4.53;;;;;;;14.17;84.92;99125.03;4979968;28;104052;-89
2021/08/17 06:31:18;;;;;;;5.20;3.90;;;;;;;14.36;84.57;99127.91;4968247;28;103204;-83
2021/08/17 06:33:46;;;;;;;5.63;3.87;;;;;;;14.46;82.92;99136.81;4968765;28;104441;-87
2021/08/17 06:36:19;;;;;;;6.50;4.90;;;;;;;14.50;83.09;99132.97;4971547;28;104956;-88
2021/08/17 06:38:47;;;;;;;10.00;5.27;;;;;;;14.52;82.11;99144.31;4969337;28;105096;-89
2021/08/17 06:41:15;;;;;;;6.20;4.47;;;;;;;14.57;82.64;99146.59;4970317;28;103459;-88
2021/08/17 06:43:44;;;;;;;5.17;4.23;;;;;;;14.67;82.18;99152.00;4976598;28;104558;-88
2021/08/17 06:46:12;;;;;;;4.33;3.67;;;;;;;14.92;81.71;99151.69;4975824;28;104851;-86
2021/08/17 06:48:40;;;;;;;6.07;4.67;;;;;;;14.72;80.50;99155.13;4967344;28;104346;-85
2021/08/17 06:51:10;;;;;;;6.53;4.93;;;;;;;14.93;82.24;99150.72;4974905;28;104124;-76
2021/08/17 06:53:40;;;;;;;4.97;4.47;;;;;;;15.05;80.81;99147.00;4964732;28;105378;-76
2021/08/17 06:56:08;;;;;;;6.33;4.57;;;;;;;14.83;80.89;99152.44;4969538;28;104490;-75
2021/08/17 06:58:36;;;;;;;7.07;5.27;;;;;;;14.87;81.44;99159.19;4968315;28;103841;-75
2021/08/17 07:01:04;;;;;;;7.20;5.50;;;;;;;14.63;79.11;99155.88;4970105;28;103634;-75
2021/08/17 07:03:33;;;;;;;6.03;4.83;;;;;;;14.68;80.22;99156.38;4967826;28;107473;-84
2021/08/17 07:06:01;;;;;;;5.67;4.60;;;;;;;14.90;79.46;99161.59;4974699;28;104839;-77
2021/08/17 07:08:29;;;;;;;7.13;4.70;;;;;;;15.34;79.45;99164.06;4973496;28;103797;-83
2021/08/17 07:10:58;;;;;;;8.57;6.33;;;;;;;15.13;77.61;99160.50;4962828;28;103389;-77
2021/08/17 07:13:28;;;;;;;8.73;5.57;;;;;;;15.33;78.65;99166.84;4966471;28;104824;-77
2021/08/17 07:15:56;;;;;;;9.43;5.83;;;;;;;15.58;78.80;99166.47;4962224;28;105761;-78
2021/08/17 07:18:25;;;;;;;7.83;5.77;;;;;;;15.49;78.42;99175.25;4958276;28;103944;-78
2021/08/17 07:20:53;;;;;;;9.40;6.47;;;;;;;15.45;78.98;99177.31;4966571;28;103665;-78
2021/08/17 07:23:21;;;;;;;8.10;5.53;;;;;;;15.60;77.17;99172.53;4961038;28;104650;-77
2021/08/17 07:25:49;;;;;;;8.07;5.53;;;;;;;15.87;75.82;99170.16;4964180;28;105155;-78
2021/08/17 07:35:39;;;;;;;7.53;5.30;;;;;;;16.32;72.98;99170.63;4891660;28;105807;-63
2021/08/17 07:38:07;;;;;;;6.00;5.07;;;;;;;16.19;74.23;99164.69;4914189;28;103896;-63
2021/08/17 07:40:35;;;;;;;5.03;4.27;;;;;;;16.91;71.45;99164.44;4916824;28;104142;-63
2021/08/17 07:43:04;;;;;;;6.60;5.50;;;;;;;17.11;71.77;99164.31;4917108;28;102655;-63
2021/08/17 07:45:32;;;;;;;6.80;5.20;;;;;;;16.96;71.71;99164.84;4918698;28;103867;-63
2021/08/17 07:48:21;;;;;;;6.23;5.13;;;;;;;16.85;72.48;99165.00;4916463;28;103268;-63
2021/08/17 07:50:55;;;;;;;7.83;5.63;;;;;;;16.65;71.32;99167.63;4918091;28;103096;-63
2021/08/17 07:53:23;;;;;;;6.20;5.17;;;;;;;17.20;72.48;99159.97;4930664;28;103090;-63
2021/08/17 07:55:51;;;;;;;6.20;5.33;;;;;;;16.66;73.35;99160.47;4921007;28;103008;-67
2021/08/17 07:58:20;;;;;;;6.70;5.10;;;;;;;16.86;72.68;99169.34;4920065;28;103953;-67
2021/08/17 08:00:48;;;;;;;5.43;4.83;;;;;;;17.03;72.81;99166.00;4942946;23;104299;-65
2021/08/17 08:03:24;;;;;;;6.40;5.07;;;;;;;17.11;70.66;99171.47;4926640;28;102757;-65
2021/08/17 08:05:56;;;;;;;5.20;4.70;;;;;;;17.94;67.53;99169.81;4939049;28;102933;-63
2021/08/17 08:08:24;;;;;;;7.33;5.23;;;;;;;18.32;64.76;99168.81;4919245;28;104897;-64
2021/08/17 08:10:52;;;;;;;8.07;6.18;;;;;;;17.91;63.91;99172.78;4935935;28;103318;-63
2021/08/17 08:13:21;;;;;;;7.43;5.63;;;;;;;18.70;62.53;99159.75;4939280;28;102888;-64
2021/08/17 08:15:49;;;;;;;6.72;5.05;;;;;;;18.95;60.34;99167.03;4940125;28;104002;-63
2021/08/17 08:18:17;;;;;;;8.35;5.50;;;;;;;19.68;58.82;99170.38;4941766;28;103249;-63
2021/08/17 08:20:46;;;;;;;7.60;5.35;;;;;;;19.43;60.85;99157.78;4943671;28;103243;-64
2021/08/17 08:23:16;;;;;;;8.55;6.03;;;;;;;19.07;57.73;99156.94;4948404;28;102948;-64
2021/08/17 08:25:44;;;;;;;9.45;5.63;;;;;;;19.33;57.23;99157.03;4943620;28;103874;-65
2021/08/17 08:28:12;;;;;;;6.43;5.72;;;;;;;19.70;56.99;99162.19;4942568;28;103564;-65
2021/08/17 08:30:40;;;;;;;5.80;4.75;;;;;;;19.73;57.54;99160.03;4943779;28;103182;-65
2021/08/17 08:33:08;;;;;;;6.93;5.30;;;;;;;19.08;60.47;99164.84;4942087;28;102537;-65
2021/08/17 08:35:37;;;;;;;8.00;5.45;;;;;;;19.18;59.06;99159.41;4944847;28;102623;-65
2021/08/17 08:38:05;;;;;;;5.13;4.47;;;;;;;19.69;57.83;99164.03;4941491;28;104001;-65
2021/08/17 08:40:35;;;;;;;6.68;5.10;;;;;;;19.38;56.83;99163.63;4941060;28;103180;-65
2021/08/17 08:43:03;;;;;;;9.07;5.00;;;;;;;19.25;58.02;99162.31;4943530;28;102718;-65
2021/08/17 08:45:33;;;;;;;6.32;5.38;;;;;;;19.63;57.48;99170.84;4943215;28;104254;-65
2021/08/17 08:48:01;;;;;;;5.65;5.10;;;;;;;19.81;56.57;99169.97;4941327;28;104307;-65
2021/08/17 08:50:30;;;;;;;6.72;4.95;;;;;;;19.94;55.78;99173.91;4941634;28;103219;-65
2021/08/17 08:52:59;;;;;;;7.78;5.10;;;;;;;19.47;55.09;99177.94;4923101;28;102720;-65
2021/08/17 08:55:27;;;;;;;5.70;4.65;;;;;;;19.48;57.65;99176.94;4943000;28;103971;-65
2021/08/17 08:57:57;;;;;;;6.75;4.60;;;;;;;19.66;55.61;99175.06;4939199;28;103082;-64
2021/08/17 09:00:25;;;;;;;5.70;4.57;;;;;;;20.81;54.72;99163.72;4941171;28;103203;-64
2021/08/17 09:02:53;;;;;;;6.07;4.95;;;;;;;20.95;53.37;99167.63;4942270;28;102755;-64
2021/08/17 09:05:23;;;;;;;6.35;5.20;;;;;;;21.22;53.42;99161.97;4942824;28;102770;-64
2021/08/17 09:07:52;;;;;;;6.40;5.47;;;;;;;20.86;53.75;99165.91;4941010;28;104396;-65
2021/08/17 09:10:24;;;;;;;6.25;5.38;;;;;;;21.30;52.35;99159.31;4934910;28;103226;-65
2021/08/17 09:12:57;;;;;;;6.75;5.38;;;;;;;21.08;53.38;99148.38;4933015;28;102745;-66
2021/08/17 09:15:30;;;;;;;6.25;5.65;;;;;;;21.80;53.37;99152.88;4934522;28;103798;-66
2021/08/17 09:18:01;;;;;;;5.25;4.63;;;;;;;21.98;52.44;99148.13;4936785;28;103868;-66
2021/08/17 09:20:33;;;;;;;5.68;5.07;;;;;;;20.16;53.96;99151.91;4940180;28;103233;-66
2021/08/17 09:23:26;;;;;;;5.35;4.82;;;;;;;21.10;52.11;99155.25;4936895;28;102560;-66
2021/08/17 09:25:56;;;;;;;5.50;4.82;;;;;;;21.48;50.87;99166.34;4941187;28;103854;-65
2021/08/17 09:28:27;;;;;;;6.15;5.55;;;;;;;20.97;52.17;99162.09;4936217;28;103419;-66
2021/08/17 09:30:55;;;;;;;7.32;6.00;;;;;;;19.49;52.81;99173.25;4935906;28;103388;-67
2021/08/17 09:33:23;;;;;;;6.50;4.93;;;;;;;20.27;54.44;99158.03;4936752;28;102910;-66
2021/08/17 09:35:57;;;;;;;6.22;4.93;;;;;;;20.85;53.97;99148.16;4935779;28;104044;-66
2021/08/17 09:38:31;;;;;;;6.07;5.03;;;;;;;19.78;50.91;99152.38;4910414;28;104451;-66
2021/08/17 09:41:04;;;;;;;4.38;3.97;;;;;;;20.30;52.02;99152.31;4932436;28;103223;-66
2021/08/17 09:43:33;;;;;;;6.65;4.22;;;;;;;20.70;48.63;99133.66;4941965;28;102741;-66
2021/08/17 09:46:10;;;;;;;5.97;4.93;;;;;;;21.07;49.17;99133.22;4941257;28;103711;-66
2021/08/17 09:48:38;;;;;;;5.07;4.57;;;;;;;21.97;49.43;99135.72;4941962;28;103445;-66
2021/08/17 09:51:06;;;;;;;7.95;5.07;;;;;;;22.02;47.23;99141.41;4925127;28;103206;-66
2021/08/17 09:53:34;;;;;;;7.05;4.70;;;;;;;20.12;50.35;99145.19;4928737;28;103540;-66
2021/08/17 09:56:03;;;;;;;5.75;5.15;;;;;;;20.49;49.63;99142.16;4936377;28;102720;-64
2021/08/17 09:58:34;;;;;;;4.95;4.28;;;;;;;21.02;50.39;99141.78;4929490;28;103599;-64
2021/08/17 10:01:04;;;;;;;5.50;4.57;;;;;;;20.73;49.71;99136.03;4933347;28;103212;-63
2021/08/17 10:03:33;;;;;;;6.00;4.30;;;;;;;20.97;48.96;99129.88;4934076;28;102738;-65
2021/08/17 10:06:01;;;;;;;4.50;4.10;;;;;;;20.99;48.89;99123.31;4937968;28;102603;-64
2021/08/17 10:08:32;;;;;;;5.03;4.53;;;;;;;20.67;46.18;99134.00;4930088;28;103285;-64
2021/08/17 10:11:01;;;;;;;5.18;4.40;;;;;;;20.73;50.49;99133.34;4934153;28;103301;-64
2021/08/17 10:13:31;;;;;;;5.95;4.90;;;;;;;20.36;49.40;99120.31;4915477;28;102773;-64
2021/08/17 10:16:01;;;;;;;4.88;3.85;;;;;;;20.02;49.72;99123.00;4916607;28;102583;-64
2021/08/17 10:18:31;;;;;;;4.85;3.92;;;;;;;19.67;49.09;99124.00;4935712;28;103858;-66
2021/08/17 10:21:02;;;;;;;4.20;3.80;;;;;;;20.23;48.49;99131.50;4936100;28;103295;-66
2021/08/17 10:23:32;;;;;;;5.28;4.13;;;;;;;20.20;49.91;99129.13;4938410;28;102612;-67
2021/08/17 10:26:02;;;;;;;4.05;3.63;;;;;;;20.09;49.49;99102.59;4937252;28;102946;-67
2021/08/17 10:28:33;;;;;;;5.30;4.15;;;;;;;20.77;49.05;99099.81;4933488;28;103756;-66
2021/08/17 10:31:23;;;;;;;5.82;4.68;;;;;;;20.28;47.76;99120.28;4916275;28;104169;-64
2021/08/17 10:33:53;;;;;;;6.40;3.92;;;;;;;21.15;48.83;99123.34;4929691;28;102636;-64
2021/08/17 10:36:41;;;;;;;5.07;4.47;;;;;;;21.39;48.83;99109.91;4940226;28;103747;-64
2021/08/17 10:39:33;;;;;;;5.25;3.85;;;;;;;21.59;47.66;99117.59;4918600;28;103269;-64
2021/08/17 10:42:21;;;;;;;5.93;3.67;;;;;;;21.29;48.43;99111.94;4939724;28;103354;-64
2021/08/17 10:44:49;;;;;;;5.43;3.55;;;;;;;21.07;48.18;99103.69;4935787;28;102699;-64
2021/08/17 10:47:32;;;;;;;6.25;4.07;;;;;;;21.01;48.98;99105.19;4934928;28;103144;-64
2021/08/17 10:50:00;;;;;;;4.72;3.70;;;;;;;21.63;48.28;99098.28;4938585;28;103298;-66
2021/08/17 10:52:40;;;;;;;3.97;3.22;;;;;;;21.97;45.27;99095.38;4924187;28;103289;-65
2021/08/17 10:55:29;;;;;;;3.58;3.13;;;;;;;20.48;47.89;99097.56;4927737;28;102594;-64
2021/08/17 10:57:59;;;;;;;3.58;3.05;;;;;;;20.31;48.00;99089.59;4932092;28;103603;-66
2021/08/17 11:01:00;;;;;;;4.60;3.60;;;;;;;20.76;48.07;99096.28;4935859;28;104020;-66
2021/08/17 11:03:48;;;;;;;5.07;4.18;;;;;;;19.37;50.34;99096.78;4940136;28;103373;-67
2021/08/17 11:06:47;;;;;;;6.30;4.55;;;;;;;19.14;51.69;99091.09;4939326;28;102622;-66
2021/08/17 11:16:52;;;;;;;6.20;4.20;;;;;;;20.14;49.61;99053.81;4927482;28;103256;-65
2021/08/17 11:19:34;;;;;;;4.30;3.90;;;;;;;19.02;47.89;99058.34;4923867;28;102876;-63
2021/08/17 11:22:07;;;;;;;5.30;4.00;;;;;;;20.83;48.22;99053.47;4923580;28;102790;-66
2021/08/17 11:24:37;;;;;;;3.88;3.30;;;;;;;21.66;48.65;99049.56;4936655;28;102750;-65
2021/08/17 11:27:09;;;;;;;4.45;3.85;;;;;;;22.10;46.84;99044.53;4919424;28;104080;-64
2021/08/17 11:29:42;;;;;;;7.22;4.55;;;;;;;20.73;48.77;99048.28;4938461;28;102650;-67
2021/08/17 11:32:12;;;;;;;5.07;4.25;;;;;;;20.26;51.53;99044.50;4943639;28;102629;-66
2021/08/17 11:34:43;;;;;;;5.22;4.22;;;;;;;20.58;51.41;99038.34;4938952;28;104286;-65
2021/08/17 11:37:13;;;;;;;5.28;3.85;;;;;;;21.68;48.64;99044.84;4939213;28;103333;-66
2021/08/17 11:39:43;;;;;;;4.18;3.78;;;;;;;21.68;48.15;99044.00;4943281;28;102655;-65
2021/08/17 11:42:14;;;;;;;6.03;4.35;;;;;;;21.58;46.33;99059.50;4940411;28;102855;-66
2021/08/17 11:44:44;;;;;;;7.32;4.13;;;;;;;21.99;47.52;99052.16;4938632;28;104083;-67
2021/08/17 11:47:14;;;;;;;4.63;4.18;;;;;;;21.33;45.59;99046.06;4942448;28;103346;-66
2021/08/17 11:49:44;;;;;;;5.90;4.28;;;;;;;21.56;45.26;99046.19;4941044;28;102719;-67
2021/08/17 11:52:15;;;;;;;4.22;3.40;;;;;;;21.91;47.20;99044.97;4938307;28;103076;-66